sensor_id;sensor_type;location;lat;lon;timestamp;pressure;altitude;pressure_sealevel;temperature;humidity
53858;BME280;39763;51.188;6.690;2023-02-20T00:01:11;102314.97;;;8.39;73.28
53858;BME280;39763;51.188;6.690;2023-02-20T00:02:42;102313.22;;;8.38;73.63
53858;BME280;39763;51.188;6.690;2023-02-20T00:04:14;102314.13;;;8.40;73.41
53858;BME280;39763;51.188;6.690;2023-02-20T00:05:46;102310.63;;;8.38;73.68
53858;BME280;39763;51.188;6.690;2023-02-20T00:07:17;102308.84;;;8.35;73.36
53858;BME280;39763;51.188;6.690;2023-02-20T00:08:49;102304.50;;;8.34;73.46
53858;BME280;39763;51.188;6.690;2023-02-20T00:10:20;102307.97;;;8.35;74.13
53858;BME280;39763;51.188;6.690;2023-02-20T00:11:52;102309.72;;;8.34;73.82
53858;BME280;39763;51.188;6.690;2023-02-20T00:13:24;102300.13;;;8.35;73.82
53858;BME280;39763;51.188;6.690;2023-02-20T00:14:56;102300.13;;;8.35;73.99
53858;BME280;39763;51.188;6.690;2023-02-20T00:16:29;102293.97;;;8.31;74.18
53858;BME280;39763;51.188;6.690;2023-02-20T00:18:00;102290.53;;;8.31;74.15
53858;BME280;39763;51.188;6.690;2023-02-20T00:19:32;102284.41;;;8.32;73.78
53858;BME280;39763;51.188;6.690;2023-02-20T00:21:04;102281.78;;;8.27;73.94
53858;BME280;39763;51.188;6.690;2023-02-20T00:22:36;102284.41;;;8.27;73.88
53858;BME280;39763;51.188;6.690;2023-02-20T00:24:07;102298.38;;;8.28;74.24
53858;BME280;39763;51.188;6.690;2023-02-20T00:25:39;102293.13;;;8.28;74.36
53858;BME280;39763;51.188;6.690;2023-02-20T00:27:11;102292.25;;;8.29;74.40
53858;BME280;39763;51.188;6.690;2023-02-20T00:28:43;102287.91;;;8.28;74.50
53858;BME280;39763;51.188;6.690;2023-02-20T00:30:16;102285.28;;;8.26;73.75
53858;BME280;39763;51.188;6.690;2023-02-20T00:31:51;102287.00;;;8.26;73.88
53858;BME280;39763;51.188;6.690;2023-02-20T00:33:23;102290.50;;;8.26;74.07
53858;BME280;39763;51.188;6.690;2023-02-20T00:34:54;102291.38;;;8.24;74.42
53858;BME280;39763;51.188;6.690;2023-02-20T00:36:26;102276.53;;;8.23;74.02
53858;BME280;39763;51.188;6.690;2023-02-20T00:37:57;102291.38;;;8.27;74.12
53858;BME280;39763;51.188;6.690;2023-02-20T00:39:30;102289.66;;;8.32;74.65
53858;BME280;39763;51.188;6.690;2023-02-20T00:41:02;102289.66;;;8.35;74.59
53858;BME280;39763;51.188;6.690;2023-02-20T00:42:33;102277.44;;;8.35;73.98
53858;BME280;39763;51.188;6.690;2023-02-20T00:44:05;102277.44;;;8.34;73.71
53858;BME280;39763;51.188;6.690;2023-02-20T00:45:37;102283.53;;;8.33;73.94
53858;BME280;39763;51.188;6.690;2023-02-20T00:47:10;102284.44;;;8.36;74.74
53858;BME280;39763;51.188;6.690;2023-02-20T00:48:43;102289.69;;;8.42;74.23
53858;BME280;39763;51.188;6.690;2023-02-20T00:50:34;102280.06;;;8.49;74.10
53858;BME280;39763;51.188;6.690;2023-02-20T00:52:05;102275.72;;;8.54;73.74
53858;BME280;39763;51.188;6.690;2023-02-20T00:53:38;102274.81;;;8.61;73.64
53858;BME280;39763;51.188;6.690;2023-02-20T00:55:10;102279.19;;;8.64;73.42
53858;BME280;39763;51.188;6.690;2023-02-20T00:56:42;102269.59;;;8.67;74.01
53858;BME280;39763;51.188;6.690;2023-02-20T00:58:13;102260.88;;;8.70;73.24
53858;BME280;39763;51.188;6.690;2023-02-20T00:59:45;102268.72;;;8.74;73.82
53858;BME280;39763;51.188;6.690;2023-02-20T01:01:17;102261.75;;;8.73;73.36
53858;BME280;39763;51.188;6.690;2023-02-20T01:02:50;102262.63;;;8.71;72.80
53858;BME280;39763;51.188;6.690;2023-02-20T01:04:21;102257.38;;;8.66;73.05
53858;BME280;39763;51.188;6.690;2023-02-20T01:05:53;102238.16;;;8.63;72.97
53858;BME280;39763;51.188;6.690;2023-02-20T01:07:25;102245.16;;;8.61;73.85
53858;BME280;39763;51.188;6.690;2023-02-20T01:08:56;102239.91;;;8.61;73.08
53858;BME280;39763;51.188;6.690;2023-02-20T01:10:28;102239.94;;;8.58;73.14
53858;BME280;39763;51.188;6.690;2023-02-20T01:11:59;102226.84;;;8.56;73.54
53858;BME280;39763;51.188;6.690;2023-02-20T01:13:31;102230.31;;;8.54;73.33
53858;BME280;39763;51.188;6.690;2023-02-20T01:15:03;102230.31;;;8.52;73.95
53858;BME280;39763;51.188;6.690;2023-02-20T01:16:35;102232.06;;;8.50;73.40
53858;BME280;39763;51.188;6.690;2023-02-20T01:18:08;102230.31;;;8.49;74.06
53858;BME280;39763;51.188;6.690;2023-02-20T01:19:39;102219.84;;;8.46;73.89
53858;BME280;39763;51.188;6.690;2023-02-20T01:21:13;102231.22;;;8.45;74.35
53858;BME280;39763;51.188;6.690;2023-02-20T01:22:45;102225.06;;;8.46;73.66
53858;BME280;39763;51.188;6.690;2023-02-20T01:24:17;102225.06;;;8.46;74.05
53858;BME280;39763;51.188;6.690;2023-02-20T01:25:51;102222.47;;;8.47;73.90
53858;BME280;39763;51.188;6.690;2023-02-20T01:27:22;102208.50;;;8.48;74.45
53858;BME280;39763;51.188;6.690;2023-02-20T01:28:54;102212.88;;;8.54;74.43
53858;BME280;39763;51.188;6.690;2023-02-20T01:30:26;102214.63;;;8.58;74.18
53858;BME280;39763;51.188;6.690;2023-02-20T01:31:58;102210.25;;;8.57;73.43
53858;BME280;39763;51.188;6.690;2023-02-20T01:33:31;102204.16;;;8.55;73.68
53858;BME280;39763;51.188;6.690;2023-02-20T01:35:03;102205.88;;;8.53;73.33
53858;BME280;39763;51.188;6.690;2023-02-20T01:36:34;102199.78;;;8.49;73.82
53858;BME280;39763;51.188;6.690;2023-02-20T01:38:06;102201.50;;;8.47;73.92
53858;BME280;39763;51.188;6.690;2023-02-20T01:39:38;102191.03;;;8.46;73.36
53858;BME280;39763;51.188;6.690;2023-02-20T01:41:10;102198.06;;;8.42;73.67
53858;BME280;39763;51.188;6.690;2023-02-20T01:42:42;102189.31;;;8.39;73.69
53858;BME280;39763;51.188;6.690;2023-02-20T01:44:17;102197.16;;;8.36;73.53
53858;BME280;39763;51.188;6.690;2023-02-20T01:45:49;102191.94;;;8.36;73.99
53858;BME280;39763;51.188;6.690;2023-02-20T01:47:21;102207.66;;;8.39;74.30
53858;BME280;39763;51.188;6.690;2023-02-20T01:48:55;102211.13;;;8.41;74.31
53858;BME280;39763;51.188;6.690;2023-02-20T01:50:28;102216.38;;;8.44;73.81
53858;BME280;39763;51.188;6.690;2023-02-20T01:52:02;102212.00;;;8.46;74.50
53858;BME280;39763;51.188;6.690;2023-02-20T01:53:38;102208.50;;;8.52;73.98
53858;BME280;39763;51.188;6.690;2023-02-20T01:55:14;102205.03;;;8.57;74.38
53858;BME280;39763;51.188;6.690;2023-02-20T01:56:46;102202.38;;;8.62;74.30
53858;BME280;39763;51.188;6.690;2023-02-20T01:58:20;102204.13;;;8.64;74.07
53858;BME280;39763;51.188;6.690;2023-02-20T01:59:54;102200.63;;;8.65;73.91
53858;BME280;39763;51.188;6.690;2023-02-20T02:01:27;102207.59;;;8.68;73.97
53858;BME280;39763;51.188;6.690;2023-02-20T02:03:00;102205.00;;;8.71;73.44
53858;BME280;39763;51.188;6.690;2023-02-20T02:04:34;102205.84;;;8.76;73.77
53858;BME280;39763;51.188;6.690;2023-02-20T02:06:08;102203.22;;;8.83;73.99
53858;BME280;39763;51.188;6.690;2023-02-20T02:07:43;102199.72;;;8.88;73.24
53858;BME280;39763;51.188;6.690;2023-02-20T02:09:16;102191.81;;;8.91;73.21
53858;BME280;39763;51.188;6.690;2023-02-20T02:10:53;102190.94;;;8.93;72.82
53858;BME280;39763;51.188;6.690;2023-02-20T02:12:27;102181.38;;;8.88;73.07
53858;BME280;39763;51.188;6.690;2023-02-20T02:13:59;102176.16;;;8.81;72.08
53858;BME280;39763;51.188;6.690;2023-02-20T02:15:30;102174.44;;;8.71;72.27
53858;BME280;39763;51.188;6.690;2023-02-20T02:17:12;102170.94;;;8.63;72.29
53858;BME280;39763;51.188;6.690;2023-02-20T02:18:51;102170.97;;;8.54;72.97
53858;BME280;39763;51.188;6.690;2023-02-20T02:22:18;102165.72;;;8.48;72.74
53858;BME280;39763;51.188;6.690;2023-02-20T02:24:05;102171.00;;;8.42;73.74
53858;BME280;39763;51.188;6.690;2023-02-20T02:25:44;102169.25;;;8.38;74.02
53858;BME280;39763;51.188;6.690;2023-02-20T02:29:21;102156.16;;;8.33;73.65
53858;BME280;39763;51.188;6.690;2023-02-20T02:31:16;102158.78;;;8.32;73.62
53858;BME280;39763;51.188;6.690;2023-02-20T02:33:00;102147.41;;;8.31;73.72
53858;BME280;39763;51.188;6.690;2023-02-20T02:34:47;102143.94;;;8.32;73.92
53858;BME280;39763;51.188;6.690;2023-02-20T02:36:31;102135.22;;;8.30;73.66
53858;BME280;39763;51.188;6.690;2023-02-20T02:38:08;102140.44;;;8.29;74.02
53858;BME280;39763;51.188;6.690;2023-02-20T02:39:45;102137.81;;;8.30;74.70
53858;BME280;39763;51.188;6.690;2023-02-20T02:41:19;102132.59;;;8.29;75.06
53858;BME280;39763;51.188;6.690;2023-02-20T02:42:55;102134.34;;;8.28;75.01
53858;BME280;39763;51.188;6.690;2023-02-20T02:44:30;102138.69;;;8.26;74.77
53858;BME280;39763;51.188;6.690;2023-02-20T02:46:04;102138.69;;;8.25;74.88
53858;BME280;39763;51.188;6.690;2023-02-20T02:47:40;102134.34;;;8.25;75.04
53858;BME280;39763;51.188;6.690;2023-02-20T02:49:18;102122.13;;;8.26;74.81
53858;BME280;39763;51.188;6.690;2023-02-20T02:50:50;102126.47;;;8.24;74.75
53858;BME280;39763;51.188;6.690;2023-02-20T02:52:26;102136.06;;;8.22;74.65
53858;BME280;39763;51.188;6.690;2023-02-20T02:54:20;102131.72;;;8.21;75.28
53858;BME280;39763;51.188;6.690;2023-02-20T02:55:56;102132.59;;;8.20;75.25
53858;BME280;39763;51.188;6.690;2023-02-20T02:57:49;102122.97;;;8.17;75.39
53858;BME280;39763;51.188;6.690;2023-02-20T02:59:21;102128.25;;;8.16;75.20
53858;BME280;39763;51.188;6.690;2023-02-20T03:00:55;102127.38;;;8.13;75.64
53858;BME280;39763;51.188;6.690;2023-02-20T03:02:30;102122.13;;;8.13;75.30
53858;BME280;39763;51.188;6.690;2023-02-20T03:04:04;102130.84;;;8.12;74.91
53858;BME280;39763;51.188;6.690;2023-02-20T03:05:39;102131.72;;;8.13;75.80
53858;BME280;39763;51.188;6.690;2023-02-20T03:07:16;102132.59;;;8.10;75.69
53858;BME280;39763;51.188;6.690;2023-02-20T03:08:52;102128.25;;;8.12;75.90
53858;BME280;39763;51.188;6.690;2023-02-20T03:10:28;102128.25;;;8.11;75.80
53858;BME280;39763;51.188;6.690;2023-02-20T03:12:03;102127.38;;;8.10;75.83
53858;BME280;39763;51.188;6.690;2023-02-20T03:13:39;102127.38;;;8.10;75.31
53858;BME280;39763;51.188;6.690;2023-02-20T03:15:32;102130.84;;;8.11;75.28
53858;BME280;39763;51.188;6.690;2023-02-20T03:17:08;102128.25;;;8.09;75.38
53858;BME280;39763;51.188;6.690;2023-02-20T03:18:42;102124.75;;;8.10;75.37
53858;BME280;39763;51.188;6.690;2023-02-20T03:20:17;102123.00;;;8.09;76.15
53858;BME280;39763;51.188;6.690;2023-02-20T03:21:51;102120.41;;;8.11;75.74
53858;BME280;39763;51.188;6.690;2023-02-20T03:23:26;102114.28;;;8.10;75.90
53858;BME280;39763;51.188;6.690;2023-02-20T03:25:05;102111.66;;;8.10;75.88
53858;BME280;39763;51.188;6.690;2023-02-20T03:26:40;102108.19;;;8.08;75.43
53858;BME280;39763;51.188;6.690;2023-02-20T03:28:13;102104.69;;;8.08;75.70
53858;BME280;39763;51.188;6.690;2023-02-20T03:29:47;102106.44;;;8.07;76.19
53858;BME280;39763;51.188;6.690;2023-02-20T03:31:20;102102.94;;;8.05;76.10
53858;BME280;39763;51.188;6.690;2023-02-20T03:32:55;102096.84;;;8.05;75.39
53858;BME280;39763;51.188;6.690;2023-02-20T03:34:47;102096.84;;;8.05;75.50
53858;BME280;39763;51.188;6.690;2023-02-20T03:36:41;102081.13;;;8.03;75.41
53858;BME280;39763;51.188;6.690;2023-02-20T03:38:35;102090.75;;;8.00;75.55
53858;BME280;39763;51.188;6.690;2023-02-20T03:40:27;102089.88;;;7.98;75.95
53858;BME280;39763;51.188;6.690;2023-02-20T03:42:19;102089.00;;;7.97;76.29
53858;BME280;39763;51.188;6.690;2023-02-20T03:44:17;102097.72;;;7.96;76.16
53858;BME280;39763;51.188;6.690;2023-02-20T03:45:50;102092.50;;;7.96;75.75
53858;BME280;39763;51.188;6.690;2023-02-20T03:47:23;102095.13;;;7.96;76.51
53858;BME280;39763;51.188;6.690;2023-02-20T03:48:57;102096.84;;;7.99;76.10
53858;BME280;39763;51.188;6.690;2023-02-20T03:50:30;102089.88;;;7.99;76.03
53858;BME280;39763;51.188;6.690;2023-02-20T03:52:02;102093.38;;;8.00;76.05
53858;BME280;39763;51.188;6.690;2023-02-20T03:53:41;102097.69;;;8.02;76.22
53858;BME280;39763;51.188;6.690;2023-02-20T03:55:14;102094.22;;;8.03;76.18
53858;BME280;39763;51.188;6.690;2023-02-20T03:56:48;102089.84;;;8.04;75.69
53858;BME280;39763;51.188;6.690;2023-02-20T03:58:24;102083.75;;;8.03;75.68
53858;BME280;39763;51.188;6.690;2023-02-20T03:59:57;102085.50;;;8.04;75.60
53858;BME280;39763;51.188;6.690;2023-02-20T04:01:31;102086.38;;;8.05;75.72
53858;BME280;39763;51.188;6.690;2023-02-20T04:03:07;102084.63;;;8.05;76.13
53858;BME280;39763;51.188;6.690;2023-02-20T04:04:45;102095.97;;;8.04;75.47
53858;BME280;39763;51.188;6.690;2023-02-20T04:06:18;102079.38;;;8.02;75.84
53858;BME280;39763;51.188;6.690;2023-02-20T04:07:53;102094.22;;;8.02;75.74
53858;BME280;39763;51.188;6.690;2023-02-20T04:09:32;102102.06;;;8.02;75.70
53858;BME280;39763;51.188;6.690;2023-02-20T04:11:07;102091.63;;;7.99;75.25
53858;BME280;39763;51.188;6.690;2023-02-20T04:12:42;102085.53;;;7.97;75.88
53858;BME280;39763;51.188;6.690;2023-02-20T04:14:14;102091.63;;;7.96;76.15
53858;BME280;39763;51.188;6.690;2023-02-20T04:15:50;102096.84;;;7.96;75.39
53858;BME280;39763;51.188;6.690;2023-02-20T04:17:23;102095.97;;;7.94;75.74
53858;BME280;39763;51.188;6.690;2023-02-20T04:18:57;102090.75;;;7.92;75.45
53858;BME280;39763;51.188;6.690;2023-02-20T04:20:28;102087.25;;;7.93;75.73
53858;BME280;39763;51.188;6.690;2023-02-20T04:22:26;102089.88;;;7.93;75.51
53858;BME280;39763;51.188;6.690;2023-02-20T04:24:01;102086.38;;;7.91;75.43
53858;BME280;39763;51.188;6.690;2023-02-20T04:25:35;102091.63;;;7.91;75.71
53858;BME280;39763;51.188;6.690;2023-02-20T04:27:11;102086.38;;;7.90;75.84
53858;BME280;39763;51.188;6.690;2023-02-20T04:28:51;102088.13;;;7.89;76.24
53858;BME280;39763;51.188;6.690;2023-02-20T04:30:23;102086.38;;;7.90;76.07
53858;BME280;39763;51.188;6.690;2023-02-20T04:31:55;102082.88;;;7.91;76.01
53858;BME280;39763;51.188;6.690;2023-02-20T04:33:30;102083.75;;;7.91;75.71
53858;BME280;39763;51.188;6.690;2023-02-20T04:35:08;102079.41;;;7.93;75.49
53858;BME280;39763;51.188;6.690;2023-02-20T04:36:40;102083.78;;;7.94;75.87
53858;BME280;39763;51.188;6.690;2023-02-20T04:38:12;102081.16;;;7.96;75.48
53858;BME280;39763;51.188;6.690;2023-02-20T04:39:45;102080.28;;;7.94;75.46
53858;BME280;39763;51.188;6.690;2023-02-20T04:41:17;102074.19;;;7.96;75.83
53858;BME280;39763;51.188;6.690;2023-02-20T04:42:49;102075.06;;;7.94;75.18
53858;BME280;39763;51.188;6.690;2023-02-20T04:44:22;102075.91;;;7.91;75.96
53858;BME280;39763;51.188;6.690;2023-02-20T04:46:02;102077.66;;;7.94;75.85
53858;BME280;39763;51.188;6.690;2023-02-20T04:47:35;102070.69;;;7.93;75.67
53858;BME280;39763;51.188;6.690;2023-02-20T04:49:06;102074.19;;;7.92;75.34
53858;BME280;39763;51.188;6.690;2023-02-20T04:50:38;102084.63;;;7.92;75.44
53858;BME280;39763;51.188;6.690;2023-02-20T04:52:12;102079.41;;;7.92;75.87
53858;BME280;39763;51.188;6.690;2023-02-20T04:53:45;102083.75;;;7.91;75.54
53858;BME280;39763;51.188;6.690;2023-02-20T04:55:16;102075.03;;;7.89;76.34
53858;BME280;39763;51.188;6.690;2023-02-20T04:56:48;102073.31;;;7.91;75.47
53858;BME280;39763;51.188;6.690;2023-02-20T04:58:20;102075.03;;;7.91;75.65
53858;BME280;39763;51.188;6.690;2023-02-20T04:59:57;102078.53;;;7.91;75.76
53858;BME280;39763;51.188;6.690;2023-02-20T05:01:28;102078.53;;;7.91;76.16
53858;BME280;39763;51.188;6.690;2023-02-20T05:03:00;102074.16;;;7.90;75.64
53858;BME280;39763;51.188;6.690;2023-02-20T05:04:31;102075.03;;;7.91;75.70
53858;BME280;39763;51.188;6.690;2023-02-20T05:06:03;102077.66;;;7.89;75.42
53858;BME280;39763;51.188;6.690;2023-02-20T05:07:35;102071.56;;;7.90;76.40
53858;BME280;39763;51.188;6.690;2023-02-20T05:09:06;102075.03;;;7.92;75.54
53858;BME280;39763;51.188;6.690;2023-02-20T05:10:39;102073.31;;;7.91;75.53
53858;BME280;39763;51.188;6.690;2023-02-20T05:12:11;102076.78;;;7.90;75.46
53858;BME280;39763;51.188;6.690;2023-02-20T05:13:42;102062.84;;;7.88;75.90
53858;BME280;39763;51.188;6.690;2023-02-20T05:15:15;102066.34;;;7.86;76.22
53858;BME280;39763;51.188;6.690;2023-02-20T05:16:47;102068.97;;;7.84;76.30
53858;BME280;39763;51.188;6.690;2023-02-20T05:18:22;102062.84;;;7.82;75.89
53858;BME280;39763;51.188;6.690;2023-02-20T05:19:54;102068.09;;;7.82;75.96
53858;BME280;39763;51.188;6.690;2023-02-20T05:21:25;102063.72;;;7.79;76.71
53858;BME280;39763;51.188;6.690;2023-02-20T05:23:16;102068.97;;;7.79;76.30
53858;BME280;39763;51.188;6.690;2023-02-20T05:24:48;102068.09;;;7.82;75.84
53858;BME280;39763;51.188;6.690;2023-02-20T05:26:20;102075.94;;;7.81;76.58
53858;BME280;39763;51.188;6.690;2023-02-20T05:27:52;102062.84;;;7.79;76.67
53858;BME280;39763;51.188;6.690;2023-02-20T05:29:24;102065.47;;;7.81;76.65
53858;BME280;39763;51.188;6.690;2023-02-20T05:30:57;102075.06;;;7.83;76.40
53858;BME280;39763;51.188;6.690;2023-02-20T05:32:29;102062.84;;;7.82;75.98
53858;BME280;39763;51.188;6.690;2023-02-20T05:34:00;102079.44;;;7.83;76.57
53858;BME280;39763;51.188;6.690;2023-02-20T05:35:32;102076.81;;;7.81;76.69
53858;BME280;39763;51.188;6.690;2023-02-20T05:37:06;102072.44;;;7.83;76.18
53858;BME280;39763;51.188;6.690;2023-02-20T05:38:37;102079.44;;;7.83;76.53
53858;BME280;39763;51.188;6.690;2023-02-20T05:40:11;102078.56;;;7.84;76.74
53858;BME280;39763;51.188;6.690;2023-02-20T05:41:43;102072.44;;;7.83;76.23
53858;BME280;39763;51.188;6.690;2023-02-20T05:43:15;102074.19;;;7.84;76.48
53858;BME280;39763;51.188;6.690;2023-02-20T05:44:47;102069.84;;;7.86;76.66
53858;BME280;39763;51.188;6.690;2023-02-20T05:46:21;102078.56;;;7.85;76.06
53858;BME280;39763;51.188;6.690;2023-02-20T05:47:52;102069.81;;;7.88;76.64
53858;BME280;39763;51.188;6.690;2023-02-20T05:49:24;102064.59;;;7.91;76.26
53858;BME280;39763;51.188;6.690;2023-02-20T05:50:56;102063.72;;;7.90;76.39
53858;BME280;39763;51.188;6.690;2023-02-20T05:52:29;102064.59;;;7.91;76.57
53858;BME280;39763;51.188;6.690;2023-02-20T05:54:00;102061.97;;;7.91;76.42
53858;BME280;39763;51.188;6.690;2023-02-20T05:55:32;102063.72;;;7.90;76.61
53858;BME280;39763;51.188;6.690;2023-02-20T05:57:03;102064.59;;;7.92;77.13
53858;BME280;39763;51.188;6.690;2023-02-20T05:58:35;102070.69;;;7.97;77.00
53858;BME280;39763;51.188;6.690;2023-02-20T06:00:07;102066.34;;;7.96;76.55
53858;BME280;39763;51.188;6.690;2023-02-20T06:01:44;102064.59;;;7.95;76.35
53858;BME280;39763;51.188;6.690;2023-02-20T06:03:15;102063.72;;;7.98;76.57
53858;BME280;39763;51.188;6.690;2023-02-20T06:04:47;102063.72;;;7.98;76.79
53858;BME280;39763;51.188;6.690;2023-02-20T06:06:19;102060.22;;;7.99;76.29
53858;BME280;39763;51.188;6.690;2023-02-20T06:07:51;102068.09;;;8.00;76.81
53858;BME280;39763;51.188;6.690;2023-02-20T06:09:23;102061.94;;;8.03;76.68
53858;BME280;39763;51.188;6.690;2023-02-20T06:10:54;102071.53;;;8.05;76.94
53858;BME280;39763;51.188;6.690;2023-02-20T06:12:26;102066.31;;;8.04;76.66
53858;BME280;39763;51.188;6.690;2023-02-20T06:13:57;102055.84;;;8.04;76.51
53858;BME280;39763;51.188;6.690;2023-02-20T06:15:29;102054.09;;;8.04;76.87
53858;BME280;39763;51.188;6.690;2023-02-20T06:17:02;102063.69;;;8.05;76.47
53858;BME280;39763;51.188;6.690;2023-02-20T06:18:36;102064.56;;;8.10;77.08
53858;BME280;39763;51.188;6.690;2023-02-20T06:20:08;102070.69;;;8.14;76.92
53858;BME280;39763;51.188;6.690;2023-02-20T06:21:43;102071.53;;;8.18;77.24
53858;BME280;39763;51.188;6.690;2023-02-20T06:23:15;102072.38;;;8.26;77.02
53858;BME280;39763;51.188;6.690;2023-02-20T06:24:46;102072.38;;;8.33;76.28
53858;BME280;39763;51.188;6.690;2023-02-20T06:26:18;102064.53;;;8.35;76.34
53858;BME280;39763;51.188;6.690;2023-02-20T06:27:50;102061.03;;;8.39;75.97
53858;BME280;39763;51.188;6.690;2023-02-20T06:29:22;102067.16;;;8.42;76.26
53858;BME280;39763;51.188;6.690;2023-02-20T06:30:54;102063.63;;;8.49;76.37
53858;BME280;39763;51.188;6.690;2023-02-20T06:32:27;102063.63;;;8.57;75.96
53858;BME280;39763;51.188;6.690;2023-02-20T06:33:59;102067.94;;;8.61;75.02
53858;BME280;39763;51.188;6.690;2023-02-20T06:35:30;102074.03;;;8.62;75.29
53858;BME280;39763;51.188;6.690;2023-02-20T06:37:02;102079.28;;;8.66;75.66
53858;BME280;39763;51.188;6.690;2023-02-20T06:38:34;102080.16;;;8.62;75.27
53858;BME280;39763;51.188;6.690;2023-02-20T06:40:06;102078.41;;;8.63;75.16
53858;BME280;39763;51.188;6.690;2023-02-20T06:41:38;102083.63;;;8.69;75.12
53858;BME280;39763;51.188;6.690;2023-02-20T06:43:11;102089.75;;;8.63;74.43
53858;BME280;39763;51.188;6.690;2023-02-20T06:44:43;102086.25;;;8.67;75.22
53858;BME280;39763;51.188;6.690;2023-02-20T06:46:15;102094.09;;;8.73;74.56
53858;BME280;39763;51.188;6.690;2023-02-20T06:47:48;102080.97;;;8.76;74.48
53858;BME280;39763;51.188;6.690;2023-02-20T06:49:19;102084.50;;;8.74;74.82
53858;BME280;39763;51.188;6.690;2023-02-20T06:50:51;102076.59;;;8.78;74.41
53858;BME280;39763;51.188;6.690;2023-02-20T06:52:26;102076.59;;;8.88;73.94
53858;BME280;39763;51.188;6.690;2023-02-20T06:53:58;102080.09;;;8.87;74.10
53858;BME280;39763;51.188;6.690;2023-02-20T06:55:30;102094.00;;;8.95;74.00
53858;BME280;39763;51.188;6.690;2023-02-20T06:57:03;102092.25;;;8.91;73.58
53858;BME280;39763;51.188;6.690;2023-02-20T06:58:34;102091.44;;;8.89;73.23
53858;BME280;39763;51.188;6.690;2023-02-20T07:00:06;102090.56;;;8.90;74.38
53858;BME280;39763;51.188;6.690;2023-02-20T07:01:39;102094.88;;;8.95;73.94
53858;BME280;39763;51.188;6.690;2023-02-20T07:03:12;102093.09;;;9.02;73.34
53858;BME280;39763;51.188;6.690;2023-02-20T07:04:46;102097.44;;;9.07;73.70
53858;BME280;39763;51.188;6.690;2023-02-20T07:06:18;102096.56;;;9.05;73.30
53858;BME280;39763;51.188;6.690;2023-02-20T07:07:49;102096.59;;;9.02;73.47
53858;BME280;39763;51.188;6.690;2023-02-20T07:09:21;102086.13;;;9.04;73.60
53858;BME280;39763;51.188;6.690;2023-02-20T07:10:53;102096.56;;;9.08;73.29
53858;BME280;39763;51.188;6.690;2023-02-20T07:12:27;102091.38;;;9.02;72.67
53858;BME280;39763;51.188;6.690;2023-02-20T07:13:59;102094.94;;;8.88;73.26
53858;BME280;39763;51.188;6.690;2023-02-20T07:15:30;102109.78;;;8.89;72.82
53858;BME280;39763;51.188;6.690;2023-02-20T07:17:02;102114.97;;;8.92;73.29
53858;BME280;39763;51.188;6.690;2023-02-20T07:18:35;102107.09;;;8.93;73.46
53858;BME280;39763;51.188;6.690;2023-02-20T07:20:07;102112.34;;;8.98;72.84
53858;BME280;39763;51.188;6.690;2023-02-20T07:21:38;102101.84;;;9.02;72.92
53858;BME280;39763;51.188;6.690;2023-02-20T07:23:10;102109.72;;;8.99;72.41
53858;BME280;39763;51.188;6.690;2023-02-20T07:24:42;102109.72;;;8.98;72.24
53858;BME280;39763;51.188;6.690;2023-02-20T07:26:17;102104.47;;;8.98;72.34
53858;BME280;39763;51.188;6.690;2023-02-20T07:27:49;102108.84;;;8.91;73.12
53858;BME280;39763;51.188;6.690;2023-02-20T07:29:20;102103.66;;;8.90;72.59
53858;BME280;39763;51.188;6.690;2023-02-20T07:30:52;102101.91;;;8.90;73.18
53858;BME280;39763;51.188;6.690;2023-02-20T07:32:23;102101.00;;;8.94;72.23
53858;BME280;39763;51.188;6.690;2023-02-20T07:33:57;102104.47;;;9.02;72.30
53858;BME280;39763;51.188;6.690;2023-02-20T07:35:28;102100.06;;;9.06;72.73
53858;BME280;39763;51.188;6.690;2023-02-20T07:37:05;102090.44;;;9.11;72.56
53858;BME280;39763;51.188;6.690;2023-02-20T07:38:37;102096.53;;;9.11;71.72
53858;BME280;39763;51.188;6.690;2023-02-20T07:40:10;102089.56;;;9.09;72.17
53858;BME280;39763;51.188;6.690;2023-02-20T07:41:42;102093.91;;;9.13;71.80
53858;BME280;39763;51.188;6.690;2023-02-20T07:43:43;102094.78;;;9.18;71.40
53858;BME280;39763;51.188;6.690;2023-02-20T07:45:16;102097.41;;;9.15;71.26
53858;BME280;39763;51.188;6.690;2023-02-20T07:46:47;102092.16;;;9.12;71.63
53858;BME280;39763;51.188;6.690;2023-02-20T07:48:19;102093.91;;;9.16;71.46
53858;BME280;39763;51.188;6.690;2023-02-20T07:49:52;102092.09;;;9.21;71.12
53858;BME280;39763;51.188;6.690;2023-02-20T07:51:23;102091.28;;;9.19;71.48
53858;BME280;39763;51.188;6.690;2023-02-20T07:52:55;102087.75;;;9.22;70.89
53858;BME280;39763;51.188;6.690;2023-02-20T07:54:26;102095.66;;;9.14;71.12
53858;BME280;39763;51.188;6.690;2023-02-20T07:55:58;102090.34;;;9.23;71.14
53858;BME280;39763;51.188;6.690;2023-02-20T07:57:30;102080.72;;;9.31;71.19
53858;BME280;39763;51.188;6.690;2023-02-20T07:59:04;102082.44;;;9.32;70.97
53858;BME280;39763;51.188;6.690;2023-02-20T08:00:35;102077.16;;;9.40;71.36
53858;BME280;39763;51.188;6.690;2023-02-20T08:02:07;102077.13;;;9.41;70.68
53858;BME280;39763;51.188;6.690;2023-02-20T08:03:39;102096.31;;;9.49;70.32
53858;BME280;39763;51.188;6.690;2023-02-20T08:05:12;102087.63;;;9.38;70.17
53858;BME280;39763;51.188;6.690;2023-02-20T08:06:43;102097.22;;;9.42;70.38
53858;BME280;39763;51.188;6.690;2023-02-20T08:08:15;102098.09;;;9.44;70.37
53858;BME280;39763;51.188;6.690;2023-02-20T08:09:47;102091.97;;;9.48;71.10
53858;BME280;39763;51.188;6.690;2023-02-20T08:11:19;102093.66;;;9.54;70.06
53858;BME280;39763;51.188;6.690;2023-02-20T08:12:51;102096.28;;;9.54;69.78
53858;BME280;39763;51.188;6.690;2023-02-20T08:14:23;102099.78;;;9.50;70.19
53858;BME280;39763;51.188;6.690;2023-02-20T08:15:54;102113.75;;;9.55;69.85
53858;BME280;39763;51.188;6.690;2023-02-20T08:17:26;102105.00;;;9.58;70.12
53858;BME280;39763;51.188;6.690;2023-02-20T08:19:14;102090.16;;;9.53;69.82
53858;BME280;39763;51.188;6.690;2023-02-20T08:20:47;102091.91;;;9.51;69.67
53858;BME280;39763;51.188;6.690;2023-02-20T08:22:19;102098.03;;;9.52;69.70